createdAt,value
2023-05-05T00:00:09.194Z,99.90
2023-05-05T00:02:38.239Z,99.90
2023-05-05T00:05:08.484Z,99.90
2023-05-05T00:07:37.237Z,99.90
2023-05-05T00:10:07.086Z,99.90
2023-05-05T00:12:37.816Z,99.90
2023-05-05T00:15:07.989Z,99.90
2023-05-05T00:17:36.650Z,99.90
2023-05-05T00:20:06.751Z,99.90
2023-05-05T00:22:36.331Z,99.90
2023-05-05T00:25:05.330Z,99.90
2023-05-05T00:27:34.121Z,99.90
2023-05-05T00:30:04.465Z,99.90
2023-05-05T00:32:33.179Z,99.90
2023-05-05T00:35:01.918Z,99.90
2023-05-05T00:37:30.839Z,99.90
2023-05-05T00:39:59.664Z,99.90
2023-05-05T00:42:28.481Z,99.90
2023-05-05T00:44:57.553Z,99.90
2023-05-05T00:47:27.757Z,99.90
2023-05-05T00:49:56.947Z,99.90
2023-05-05T00:52:26.468Z,99.90
2023-05-05T00:54:55.858Z,99.90
2023-05-05T00:57:26.585Z,99.90
2023-05-05T00:59:57.526Z,99.90
2023-05-05T01:02:27.927Z,99.90
2023-05-05T01:04:57.389Z,99.90
2023-05-05T01:07:42.425Z,99.90
2023-05-05T01:10:21.146Z,99.90
2023-05-05T01:13:06.190Z,99.90
2023-05-05T01:15:38.894Z,99.90
2023-05-05T01:18:19.268Z,99.90
2023-05-05T01:20:59.400Z,99.90
2023-05-05T01:23:58.089Z,99.90
2023-05-05T01:26:53.907Z,99.90
2023-05-05T01:30:01.081Z,99.90
2023-05-05T01:32:36.664Z,99.90
2023-05-05T01:35:20.831Z,99.90
2023-05-05T01:37:57.051Z,99.90
2023-05-05T01:40:31.403Z,99.90
2023-05-05T01:43:03.344Z,99.90
2023-05-05T01:45:39.336Z,99.90
2023-05-05T01:48:12.662Z,99.90
2023-05-05T01:50:43.187Z,99.90
2023-05-05T01:53:14.911Z,99.90
2023-05-05T01:55:44.947Z,99.90
2023-05-05T01:58:16.923Z,99.90
2023-05-05T02:00:47.415Z,99.90
2023-05-05T02:03:19.175Z,99.90
2023-05-05T02:05:51.431Z,99.90
2023-05-05T02:08:22.706Z,99.90
2023-05-05T02:10:52.542Z,99.90
2023-05-05T02:13:24.613Z,99.90
2023-05-05T02:15:55.421Z,99.90
2023-05-05T02:18:28.680Z,99.90
2023-05-05T02:20:57.538Z,99.90
2023-05-05T02:23:26.506Z,99.90
2023-05-05T02:26:01.444Z,99.90
2023-05-05T02:28:41.081Z,99.90
2023-05-05T02:31:13.976Z,99.90
2023-05-05T02:33:47.030Z,99.90
2023-05-05T02:36:21.968Z,99.90
2023-05-05T02:38:56.596Z,99.90
2023-05-05T02:41:28.246Z,99.90
2023-05-05T02:44:00.897Z,99.90
2023-05-05T02:46:30.307Z,99.90
2023-05-05T02:49:00.878Z,99.90
2023-05-05T02:51:29.646Z,99.90
2023-05-05T02:53:58.486Z,99.90
2023-05-05T02:56:41.050Z,99.90
2023-05-05T02:59:19.650Z,99.90
2023-05-05T03:02:02.280Z,99.90
2023-05-05T03:04:40.919Z,99.90
2023-05-05T03:07:15.682Z,99.90
2023-05-05T03:09:52.860Z,99.90
2023-05-05T03:12:29.508Z,99.90
2023-05-05T03:15:02.082Z,99.90
2023-05-05T03:17:34.084Z,99.90
2023-05-05T03:20:05.479Z,99.90
2023-05-05T03:22:38.298Z,99.90
2023-05-05T03:25:07.895Z,99.90
2023-05-05T03:27:36.601Z,99.90
2023-05-05T03:30:06.365Z,99.90
2023-05-05T03:32:35.428Z,99.90
2023-05-05T03:35:06.653Z,99.90
2023-05-05T03:37:35.341Z,99.90
2023-05-05T03:40:04.050Z,99.90
2023-05-05T03:42:32.790Z,99.90
2023-05-05T03:45:01.576Z,99.90
2023-05-05T03:47:30.345Z,99.90
2023-05-05T03:50:00.725Z,99.90
2023-05-05T03:52:31.241Z,99.90
2023-05-05T03:55:00.636Z,99.90
2023-05-05T03:57:29.265Z,99.90
2023-05-05T03:59:58.021Z,99.90
2023-05-05T04:02:26.985Z,99.90
2023-05-05T04:04:55.738Z,99.90
2023-05-05T04:07:24.481Z,99.90
2023-05-05T04:09:56.727Z,99.90
2023-05-05T04:12:25.406Z,99.90
2023-05-05T04:14:54.066Z,99.90
2023-05-05T04:17:22.905Z,99.90
2023-05-05T04:19:51.684Z,99.90
2023-05-05T04:22:20.604Z,99.90
2023-05-05T04:24:49.259Z,99.90
2023-05-05T04:27:19.330Z,99.90
2023-05-05T04:29:48.110Z,99.90
2023-05-05T04:32:16.874Z,99.90
2023-05-05T04:34:45.878Z,99.90
2023-05-05T04:37:14.741Z,99.90
2023-05-05T04:39:43.458Z,99.90
2023-05-05T04:42:12.311Z,99.90
2023-05-05T04:44:42.468Z,99.90
2023-05-05T04:47:13.210Z,99.90
2023-05-05T04:49:43.543Z,99.90
2023-05-05T04:52:14.372Z,99.90
2023-05-05T04:54:43.059Z,99.90
2023-05-05T04:57:11.809Z,99.90
2023-05-05T04:59:42.134Z,99.90
2023-05-05T05:02:10.794Z,99.90
2023-05-05T05:04:39.476Z,99.90
2023-05-05T05:07:08.185Z,99.90
2023-05-05T05:09:37.070Z,99.90
2023-05-05T05:12:08.009Z,99.90
2023-05-05T05:14:38.709Z,99.90
2023-05-05T05:17:08.882Z,99.90
2023-05-05T05:19:37.575Z,99.90
2023-05-05T05:22:06.200Z,99.90
2023-05-05T05:24:36.452Z,99.90
2023-05-05T05:27:09.769Z,99.90
2023-05-05T05:29:38.961Z,99.90
2023-05-05T05:32:09.228Z,99.90
2023-05-05T05:34:38.187Z,99.90
2023-05-05T05:37:06.838Z,99.90
2023-05-05T05:39:35.588Z,99.90
2023-05-05T05:42:04.721Z,99.90
2023-05-05T05:44:33.689Z,99.90
2023-05-05T05:47:02.344Z,99.90
2023-05-05T05:49:32.670Z,99.90
2023-05-05T05:52:01.398Z,99.90
2023-05-05T05:54:30.476Z,99.90
2023-05-05T05:56:59.288Z,99.90
2023-05-05T05:59:27.975Z,99.90
2023-05-05T06:01:57.005Z,99.90
2023-05-05T06:04:28.241Z,99.90
2023-05-05T06:06:58.700Z,99.90
2023-05-05T06:09:27.363Z,99.90
2023-05-05T06:11:56.281Z,99.90
2023-05-05T06:14:25.002Z,99.90
2023-05-05T06:16:53.805Z,99.90
2023-05-05T06:19:22.627Z,99.90
2023-05-05T06:21:51.243Z,99.90
2023-05-05T06:24:21.324Z,99.90
2023-05-05T06:26:49.979Z,99.90
2023-05-05T06:29:18.662Z,99.90
2023-05-05T06:31:47.752Z,99.90
2023-05-05T06:34:16.478Z,99.90
2023-05-05T06:36:45.286Z,99.90
2023-05-05T06:39:15.914Z,99.90
2023-05-05T06:41:46.255Z,99.90
2023-05-05T06:44:15.187Z,99.90
2023-05-05T06:46:44.133Z,99.90
2023-05-05T06:49:12.922Z,99.90
2023-05-05T06:51:42.848Z,99.90
2023-05-05T06:54:11.719Z,99.90
2023-05-05T06:56:41.067Z,99.90
2023-05-05T06:59:12.073Z,99.90
2023-05-05T07:01:40.844Z,99.90
2023-05-05T07:04:09.553Z,98.10
2023-05-05T07:06:38.287Z,97.60
2023-05-05T07:09:07.071Z,98.10
2023-05-05T07:11:35.955Z,99.10
2023-05-05T07:14:04.720Z,95.10
2023-05-05T07:16:37.226Z,96.80
2023-05-05T07:19:06.544Z,94.30
2023-05-05T07:21:35.960Z,93.90
2023-05-05T07:24:05.384Z,91.40
2023-05-05T07:26:34.335Z,88.50
2023-05-05T07:29:05.545Z,88.30
2023-05-05T07:31:35.693Z,90.60
2023-05-05T07:34:04.431Z,84.50
2023-05-05T07:36:33.269Z,87.40
2023-05-05T07:39:01.952Z,84.00
2023-05-05T07:41:30.957Z,82.50
2023-05-05T07:44:01.252Z,80.40
2023-05-05T07:46:29.989Z,76.20
2023-05-05T07:49:00.180Z,77.20
2023-05-05T07:51:28.948Z,76.50
2023-05-05T07:53:57.847Z,74.90
2023-05-05T07:56:26.576Z,77.60
2023-05-05T07:58:55.407Z,79.60
2023-05-05T08:01:24.327Z,79.60
2023-05-05T08:03:53.187Z,79.50
2023-05-05T08:06:25.246Z,78.80
2023-05-05T08:08:53.955Z,78.30
2023-05-05T08:11:22.896Z,77.60
2023-05-05T08:13:51.574Z,75.00
2023-05-05T08:16:20.269Z,77.30
2023-05-05T08:18:49.013Z,76.80
2023-05-05T08:21:18.565Z,74.50
2023-05-05T08:23:48.616Z,71.30
2023-05-05T08:26:17.326Z,69.50
2023-05-05T08:28:46.741Z,70.30
2023-05-05T08:31:16.253Z,75.80
2023-05-05T08:33:44.857Z,73.00
2023-05-05T08:36:14.004Z,71.00
2023-05-05T08:38:42.542Z,71.50
2023-05-05T08:41:18.480Z,68.50
2023-05-05T08:43:49.353Z,69.00
2023-05-05T08:46:18.801Z,68.00
2023-05-05T08:48:49.216Z,65.30
2023-05-05T08:51:20.761Z,63.60
2023-05-05T08:53:59.110Z,64.30
2023-05-05T08:56:45.521Z,64.00
2023-05-05T08:59:16.884Z,60.30
2023-05-05T09:01:46.366Z,56.60
2023-05-05T09:04:15.537Z,59.20
2023-05-05T09:06:44.438Z,57.70
2023-05-05T09:09:14.149Z,57.70
2023-05-05T09:11:47.211Z,57.20
2023-05-05T09:14:15.979Z,57.80
2023-05-05T09:16:45.652Z,56.80
2023-05-05T09:19:14.300Z,58.10
2023-05-05T09:21:49.962Z,58.20
2023-05-05T09:24:18.831Z,58.60
2023-05-05T09:26:49.941Z,60.10
2023-05-05T09:29:23.321Z,58.50
2023-05-05T09:32:08.868Z,57.20
2023-05-05T09:34:38.909Z,57.80
2023-05-05T09:37:07.839Z,58.00
2023-05-05T09:39:36.664Z,57.70
2023-05-05T09:42:08.614Z,59.20
2023-05-05T09:44:40.136Z,59.20
2023-05-05T09:47:22.120Z,58.70
2023-05-05T09:50:00.852Z,60.30
2023-05-05T09:52:30.519Z,61.20
2023-05-05T09:54:59.476Z,59.60
2023-05-05T09:57:31.968Z,59.90
2023-05-05T10:00:04.376Z,58.90
2023-05-05T10:02:35.867Z,58.10
2023-05-05T10:05:11.476Z,58.00
2023-05-05T10:07:42.697Z,60.20
2023-05-05T10:10:13.523Z,60.10
2023-05-05T10:12:44.374Z,60.00
2023-05-05T10:15:16.432Z,59.20
2023-05-05T10:20:23.466Z,56.70
2023-05-05T10:22:54.327Z,57.90
2023-05-05T10:25:31.112Z,59.50
2023-05-05T10:28:06.858Z,59.30
2023-05-05T10:30:47.292Z,59.50
2023-05-05T10:33:31.777Z,58.90
2023-05-05T10:36:06.174Z,57.20
2023-05-05T10:38:35.389Z,59.70
2023-05-05T10:41:05.297Z,59.50
2023-05-05T10:43:35.591Z,59.80
2023-05-05T10:46:04.815Z,60.00
2023-05-05T10:48:46.757Z,59.90
2023-05-05T10:51:39.503Z,58.60
2023-05-05T10:54:18.467Z,57.90
2023-05-05T10:56:48.593Z,61.10
2023-05-05T10:59:47.600Z,60.80
2023-05-05T11:02:28.089Z,60.10
2023-05-05T11:05:15.413Z,59.80
2023-05-05T11:07:44.993Z,60.70
2023-05-05T11:10:16.682Z,60.30
2023-05-05T11:13:20.900Z,60.70
2023-05-05T11:15:54.361Z,59.90
2023-05-05T11:18:38.198Z,59.00
2023-05-05T11:21:17.854Z,59.90
2023-05-05T11:23:49.644Z,60.30
2023-05-05T11:26:20.804Z,62.60
2023-05-05T11:29:02.523Z,60.90
2023-05-05T11:31:33.894Z,61.90
2023-05-05T11:34:31.200Z,62.20
2023-05-05T11:37:04.020Z,61.70
2023-05-05T11:39:55.632Z,61.70
2023-05-05T11:42:28.584Z,61.80
2023-05-05T11:44:57.608Z,62.40
2023-05-05T11:47:32.836Z,61.50
2023-05-05T11:50:20.232Z,62.30
2023-05-05T11:52:49.913Z,62.90
2023-05-05T11:55:26.087Z,62.30
2023-05-05T11:57:54.998Z,60.00
2023-05-05T12:00:34.775Z,60.60
2023-05-05T12:03:06.207Z,60.60
2023-05-05T12:05:36.911Z,60.60
2023-05-05T12:08:06.572Z,60.90
2023-05-05T12:10:35.345Z,61.40
2023-05-05T12:13:04.027Z,62.60
2023-05-05T12:15:34.123Z,63.40
2023-05-05T12:18:06.052Z,61.90
2023-05-05T12:20:36.698Z,61.50
2023-05-05T12:23:05.798Z,64.00
2023-05-05T12:25:39.391Z,64.70
2023-05-05T12:28:10.023Z,64.60
2023-05-05T12:30:38.883Z,65.30
2023-05-05T12:33:09.668Z,64.30
2023-05-05T12:35:38.476Z,63.70
2023-05-05T12:38:07.374Z,64.40
2023-05-05T12:40:51.946Z,64.50
2023-05-05T12:43:30.067Z,65.80
2023-05-05T12:46:17.589Z,64.40
2023-05-05T12:48:48.497Z,65.50
2023-05-05T12:51:20.134Z,65.00
2023-05-05T12:53:51.111Z,64.00
2023-05-05T12:56:37.941Z,64.30
2023-05-05T12:59:09.010Z,63.70
2023-05-05T13:01:39.243Z,63.50
2023-05-05T13:04:12.941Z,64.80
2023-05-05T13:06:42.998Z,65.30
2023-05-05T13:09:24.920Z,64.70
2023-05-05T13:11:54.605Z,65.50
2023-05-05T13:14:24.240Z,64.20
2023-05-05T13:16:53.971Z,65.80
2023-05-05T13:19:25.047Z,66.80
2023-05-05T13:21:53.820Z,66.80
2023-05-05T13:24:34.291Z,67.70
2023-05-05T13:27:11.350Z,67.00
2023-05-05T13:29:41.834Z,68.00
2023-05-05T13:32:10.510Z,67.80
2023-05-05T13:34:40.560Z,67.50
2023-05-05T13:37:09.200Z,69.00
2023-05-05T13:39:38.095Z,68.60
2023-05-05T13:42:06.949Z,68.50
2023-05-05T13:44:35.754Z,68.20
2023-05-05T13:47:04.547Z,67.90
2023-05-05T13:49:33.219Z,67.80
2023-05-05T13:52:03.235Z,67.90
2023-05-05T13:54:32.080Z,69.70
2023-05-05T13:57:00.804Z,69.30
2023-05-05T13:59:30.146Z,70.10
2023-05-05T14:01:59.036Z,69.20
2023-05-05T14:04:27.974Z,70.20
2023-05-05T14:06:58.279Z,70.80
2023-05-05T14:09:28.418Z,70.20
2023-05-05T14:11:57.043Z,70.30
2023-05-05T14:14:25.745Z,71.30
2023-05-05T14:16:54.619Z,70.50
2023-05-05T14:19:23.254Z,70.30
2023-05-05T14:21:52.041Z,69.40
2023-05-05T14:24:20.743Z,70.90
2023-05-05T14:26:50.843Z,70.80
2023-05-05T14:29:19.463Z,70.50
2023-05-05T14:31:48.101Z,71.20
2023-05-05T14:34:16.877Z,70.90
2023-05-05T14:36:45.600Z,70.10
2023-05-05T14:39:14.272Z,71.00
2023-05-05T14:41:42.855Z,70.30
2023-05-05T14:44:12.876Z,70.00
2023-05-05T14:46:42.587Z,69.70
2023-05-05T14:49:12.774Z,69.60
2023-05-05T14:51:41.938Z,71.00
2023-05-05T14:54:24.085Z,70.90
2023-05-05T14:56:56.108Z,70.60
2023-05-05T14:59:26.396Z,70.20
2023-05-05T15:01:55.159Z,70.00
2023-05-05T15:04:23.868Z,70.00
2023-05-05T15:06:52.601Z,70.50
2023-05-05T15:09:21.494Z,70.60
2023-05-05T15:11:50.185Z,70.50
2023-05-05T15:14:18.829Z,70.00
2023-05-05T15:16:48.889Z,70.30
2023-05-05T15:19:17.637Z,71.10
2023-05-05T15:21:53.149Z,70.20
2023-05-05T15:24:22.378Z,70.70
2023-05-05T15:26:51.292Z,69.50
2023-05-05T15:29:19.929Z,69.60
2023-05-05T15:31:50.200Z,69.50
2023-05-05T15:34:18.988Z,69.10
2023-05-05T15:36:47.875Z,69.40
2023-05-05T15:39:16.564Z,69.20
2023-05-05T15:41:45.272Z,69.80
2023-05-05T15:44:14.164Z,69.00
2023-05-05T15:46:42.840Z,68.10
2023-05-05T15:49:13.446Z,68.80
2023-05-05T15:51:42.143Z,69.80
2023-05-05T15:54:10.795Z,69.90
2023-05-05T15:56:39.484Z,69.60
2023-05-05T15:59:08.356Z,69.50
2023-05-05T16:01:37.013Z,69.80
2023-05-05T16:04:06.137Z,70.50
2023-05-05T16:06:36.310Z,71.30
2023-05-05T16:09:05.429Z,70.60
2023-05-05T16:11:34.178Z,71.00
2023-05-05T16:14:02.835Z,71.90
2023-05-05T16:16:31.882Z,71.50
2023-05-05T16:19:00.782Z,71.70
2023-05-05T16:21:29.635Z,72.90
2023-05-05T16:23:59.714Z,72.50
2023-05-05T16:26:28.672Z,72.40
2023-05-05T16:28:57.459Z,72.90
2023-05-05T16:31:26.155Z,72.80
2023-05-05T16:33:54.855Z,72.90
2023-05-05T16:36:23.518Z,72.10
2023-05-05T16:38:52.415Z,72.90
2023-05-05T16:41:22.538Z,73.10
2023-05-05T16:43:51.442Z,73.30
2023-05-05T16:46:20.387Z,73.60
2023-05-05T16:48:49.140Z,74.40
2023-05-05T16:51:17.801Z,74.30
2023-05-05T16:53:48.798Z,75.10
2023-05-05T16:56:17.953Z,75.60
2023-05-05T16:58:48.054Z,76.00
2023-05-05T17:01:16.700Z,76.20
2023-05-05T17:03:45.358Z,76.10
2023-05-05T17:06:14.158Z,77.60
2023-05-05T17:08:42.807Z,76.70
2023-05-05T17:11:12.120Z,76.70
2023-05-05T17:13:40.854Z,77.10
2023-05-05T17:16:11.007Z,76.90
2023-05-05T17:18:39.661Z,78.00
2023-05-05T17:21:08.406Z,77.80
2023-05-05T17:23:37.519Z,77.70
2023-05-05T17:26:06.352Z,78.60
2023-05-05T17:28:35.239Z,79.00
2023-05-05T17:31:03.929Z,79.60
2023-05-05T17:33:34.016Z,80.50
2023-05-05T17:36:02.857Z,80.70
2023-05-05T17:38:31.503Z,81.60
2023-05-05T17:41:00.108Z,82.50
2023-05-05T17:43:28.702Z,83.50
2023-05-05T17:45:57.430Z,84.00
2023-05-05T17:48:27.469Z,84.90
2023-05-05T17:50:57.502Z,85.50
2023-05-05T17:53:26.539Z,85.40
2023-05-05T17:55:55.229Z,86.50
2023-05-05T17:58:23.899Z,87.10
2023-05-05T18:00:52.611Z,89.90
2023-05-05T18:03:21.375Z,91.40
2023-05-05T18:05:50.309Z,92.10
2023-05-05T18:08:20.730Z,92.90
2023-05-05T18:10:49.477Z,93.20
2023-05-05T18:13:18.137Z,93.90
2023-05-05T18:15:46.771Z,94.60
2023-05-05T18:18:15.478Z,95.80
2023-05-05T18:20:44.770Z,96.20
2023-05-05T18:23:13.427Z,96.70
2023-05-05T18:25:43.555Z,97.10
2023-05-05T18:28:12.386Z,99.90
2023-05-05T18:30:41.029Z,99.90
2023-05-05T18:33:09.869Z,99.90
2023-05-05T18:35:38.825Z,99.90
2023-05-05T18:38:07.567Z,99.90
2023-05-05T18:40:36.300Z,99.90
2023-05-05T18:43:06.373Z,99.90
2023-05-05T18:45:35.126Z,99.90
2023-05-05T18:48:03.814Z,99.90
2023-05-05T18:50:33.357Z,99.90
2023-05-05T18:53:02.084Z,99.90
2023-05-05T18:55:30.805Z,99.90
2023-05-05T18:57:59.502Z,99.90
2023-05-05T19:00:29.659Z,99.90
2023-05-05T19:02:58.427Z,99.90
2023-05-05T19:05:28.337Z,99.90
2023-05-05T19:07:56.961Z,99.90
2023-05-05T19:10:25.751Z,99.90
2023-05-05T19:12:55.556Z,99.90
2023-05-05T19:15:24.498Z,99.90
2023-05-05T19:17:54.815Z,99.90
2023-05-05T19:20:23.861Z,99.90
2023-05-05T19:22:52.576Z,99.90
2023-05-05T19:25:21.422Z,99.90
2023-05-05T19:27:50.151Z,99.90
2023-05-05T19:30:18.801Z,99.90
2023-05-05T19:32:47.546Z,99.90
2023-05-05T19:35:17.810Z,99.90
2023-05-05T19:37:46.612Z,99.90
2023-05-05T19:40:15.620Z,99.90
2023-05-05T19:42:44.429Z,99.90
2023-05-05T19:45:13.077Z,99.90
2023-05-05T19:47:41.811Z,99.90
2023-05-05T19:50:12.165Z,99.90
2023-05-05T19:52:42.587Z,99.90
2023-05-05T19:55:13.292Z,99.90
2023-05-05T19:57:42.008Z,99.90
2023-05-05T20:00:12.728Z,99.90
2023-05-05T20:02:42.866Z,99.90
2023-05-05T20:05:14.073Z,99.90
2023-05-05T20:07:44.636Z,99.90
2023-05-05T20:10:14.322Z,99.90
2023-05-05T20:12:48.054Z,99.90
2023-05-05T20:15:18.934Z,99.90
2023-05-05T20:17:48.499Z,99.90
2023-05-05T20:20:20.152Z,99.90
2023-05-05T20:22:51.066Z,99.90
2023-05-05T20:25:19.675Z,99.90
2023-05-05T20:27:48.398Z,99.90
2023-05-05T20:30:17.364Z,99.90
2023-05-05T20:32:46.149Z,99.90
2023-05-05T20:35:14.902Z,99.90
2023-05-05T20:37:45.128Z,99.90
2023-05-05T20:40:15.697Z,99.90
2023-05-05T20:42:44.318Z,99.90
2023-05-05T20:45:13.585Z,99.90
2023-05-05T20:47:42.288Z,99.90
2023-05-05T20:50:12.016Z,99.90
2023-05-05T20:52:40.747Z,99.90
2023-05-05T20:55:09.974Z,99.90
2023-05-05T20:57:40.133Z,99.90
2023-05-05T21:00:11.470Z,99.90
2023-05-05T21:02:40.571Z,99.90
2023-05-05T21:05:10.143Z,99.90
2023-05-05T21:07:38.795Z,99.90
2023-05-05T21:10:09.452Z,99.90
2023-05-05T21:12:41.466Z,99.90
2023-05-05T21:15:12.341Z,99.90
2023-05-05T21:17:41.014Z,99.90
2023-05-05T21:20:11.669Z,99.90
2023-05-05T21:22:40.709Z,99.90
2023-05-05T21:25:14.596Z,99.90
2023-05-05T21:27:45.148Z,99.90
2023-05-05T21:30:14.976Z,99.90
2023-05-05T21:32:43.934Z,99.90
2023-05-05T21:35:12.696Z,99.90
2023-05-05T21:37:42.021Z,99.90
2023-05-05T21:40:13.945Z,99.90
2023-05-05T21:42:44.730Z,99.90
2023-05-05T21:45:14.034Z,99.90
2023-05-05T21:47:42.829Z,99.90
2023-05-05T21:50:12.355Z,99.90
2023-05-05T21:52:41.426Z,99.90
2023-05-05T21:55:11.366Z,99.90
2023-05-05T21:57:40.063Z,99.90
2023-05-05T22:00:16.830Z,99.90
2023-05-05T22:02:46.235Z,99.90
2023-05-05T22:05:14.880Z,99.90
2023-05-05T22:07:43.533Z,99.90
2023-05-05T22:10:12.765Z,99.90
2023-05-05T22:12:41.786Z,99.90
2023-05-05T22:15:12.849Z,99.90
2023-05-05T22:17:42.128Z,99.90
2023-05-05T22:20:11.797Z,99.90
2023-05-05T22:22:40.683Z,99.90
2023-05-05T22:25:11.025Z,99.90
2023-05-05T22:27:39.947Z,99.90
2023-05-05T22:30:12.177Z,99.90
2023-05-05T22:32:43.447Z,99.90
2023-05-05T22:35:12.546Z,99.90
2023-05-05T22:37:41.542Z,99.90
2023-05-05T22:40:13.009Z,99.90
2023-05-05T22:42:41.769Z,99.90
2023-05-05T22:45:12.802Z,99.90
2023-05-05T22:47:41.664Z,99.90
2023-05-05T22:50:11.625Z,99.90
2023-05-05T22:52:40.438Z,99.90
2023-05-05T22:55:10.281Z,99.90
2023-05-05T22:57:39.206Z,99.90
2023-05-05T23:00:10.732Z,99.90
2023-05-05T23:02:41.603Z,99.90
2023-05-05T23:05:11.481Z,99.90
2023-05-05T23:07:40.370Z,99.90
2023-05-05T23:10:10.212Z,99.90
2023-05-05T23:12:38.927Z,99.90
2023-05-05T23:15:09.983Z,99.90
2023-05-05T23:17:40.480Z,99.90
2023-05-05T23:20:12.199Z,99.90
2023-05-05T23:22:41.003Z,99.90
2023-05-05T23:25:10.839Z,99.90
2023-05-05T23:27:41.217Z,99.90
2023-05-05T23:30:11.628Z,99.90
2023-05-05T23:32:42.813Z,99.90
2023-05-05T23:35:11.870Z,99.90
2023-05-05T23:37:40.717Z,99.90
2023-05-05T23:40:10.806Z,99.90
2023-05-05T23:42:39.535Z,99.90
2023-05-05T23:45:10.276Z,99.90
2023-05-05T23:47:39.051Z,99.90
2023-05-05T23:50:10.895Z,99.90
2023-05-05T23:52:39.547Z,99.90
2023-05-05T23:55:10.271Z,99.90
2023-05-05T23:57:39.107Z,99.90
